Time;durP1;ratioP1;P1;durP2;ratioP2;P2;SDS_P1;SDS_P2;PMS_P1;PMS_P2;Temp;Humidity;BMP_temperature;BMP_pressure;BME280_temperature;BME280_humidity;BME280_pressure;Samples;Min_cycle;Max_cycle;Signal;HPM_P1;HPM_P2
2021/01/09 00:00:06;;;;;;;25.83;13.90;;;1.40;99.90;;;;;;5063284;28;20174;-77
2021/01/09 00:02:32;;;;;;;22.07;13.90;;;1.40;99.90;;;;;;5063685;28;20273;-77
2021/01/09 00:04:57;;;;;;;21.77;14.13;;;1.40;99.90;;;;;;5063721;28;20521;-77
2021/01/09 00:07:23;;;;;;;21.60;13.37;;;1.40;99.90;;;;;;5061830;28;20181;-77
2021/01/09 00:09:48;;;;;;;18.97;12.43;;;1.30;99.90;;;;;;5064933;28;20181;-78
2021/01/09 00:12:14;;;;;;;18.27;12.57;;;1.40;99.90;;;;;;5057249;28;20186;-77
2021/01/09 00:14:39;;;;;;;17.37;10.40;;;1.40;99.90;;;;;;5046616;28;20761;-77
2021/01/09 00:17:08;;;;;;;20.53;12.50;;;1.30;99.90;;;;;;5063397;28;20254;-77
2021/01/09 00:19:35;;;;;;;18.77;12.10;;;1.40;99.90;;;;;;5064761;28;20530;-78
2021/01/09 00:22:00;;;;;;;16.70;11.17;;;1.30;99.90;;;;;;5045986;28;20501;-77
2021/01/09 00:24:26;;;;;;;16.77;12.57;;;1.30;99.90;;;;;;5061957;28;20448;-77
2021/01/09 00:26:52;;;;;;;18.57;11.90;;;1.40;99.90;;;;;;5046074;28;20174;-77
2021/01/09 00:29:17;;;;;;;17.80;12.50;;;1.40;99.90;;;;;;5059848;28;20520;-77
2021/01/09 00:31:43;;;;;;;17.13;12.03;;;1.40;99.90;;;;;;5064556;28;20174;-77
2021/01/09 00:34:08;;;;;;;20.50;10.77;;;1.40;99.90;;;;;;5061345;28;20210;-77
2021/01/09 00:36:35;;;;;;;17.87;12.30;;;1.40;99.90;;;;;;5061789;28;20209;-77
2021/01/09 00:39:01;;;;;;;19.67;12.27;;;1.40;99.90;;;;;;5060724;28;20527;-77
2021/01/09 00:41:30;;;;;;;17.80;12.50;;;1.40;99.90;;;;;;5042079;28;20428;-77
2021/01/09 00:43:57;;;;;;;17.87;10.97;;;1.40;99.90;;;;;;5061306;28;20205;-77
2021/01/09 00:46:23;;;;;;;18.77;13.03;;;1.40;99.90;;;;;;5059575;28;20437;-77
2021/01/09 00:48:49;;;;;;;26.93;13.10;;;1.40;99.90;;;;;;5062674;28;20484;-77
2021/01/09 00:51:16;;;;;;;20.13;12.77;;;1.40;99.90;;;;;;5055960;28;20462;-77
2021/01/09 00:53:41;;;;;;;18.20;11.73;;;1.40;99.90;;;;;;5063249;28;20463;-77
2021/01/09 00:56:07;;;;;;;20.23;12.93;;;1.40;99.90;;;;;;5061673;28;20464;-77
2021/01/09 00:58:34;;;;;;;20.73;11.40;;;1.40;99.90;;;;;;5061965;28;20196;-77
2021/01/09 01:00:59;;;;;;;19.50;11.97;;;1.40;99.90;;;;;;5044454;28;20214;-77
2021/01/09 01:03:26;;;;;;;16.00;11.03;;;1.40;99.90;;;;;;5060703;28;20477;-77
2021/01/09 01:05:52;;;;;;;16.83;10.47;;;1.40;99.90;;;;;;5063399;28;20174;-77
2021/01/09 01:08:17;;;;;;;17.93;11.80;;;1.40;99.90;;;;;;5060309;28;20388;-77
2021/01/09 01:10:43;;;;;;;15.33;11.70;;;1.50;99.90;;;;;;5064116;28;20175;-78
2021/01/09 01:13:08;;;;;;;17.23;12.03;;;1.50;99.90;;;;;;5061468;28;20190;-77
2021/01/09 01:15:34;;;;;;;16.77;11.80;;;1.50;99.90;;;;;;5044497;28;20682;-77
2021/01/09 01:18:00;;;;;;;17.30;10.47;;;1.50;99.90;;;;;;5062182;28;20267;-77
2021/01/09 01:20:26;;;;;;;17.13;11.20;;;1.40;99.90;;;;;;5061023;28;20548;-77
2021/01/09 01:22:51;;;;;;;16.47;10.67;;;1.40;99.90;;;;;;5063155;28;20420;-77
2021/01/09 01:25:17;;;;;;;17.83;10.90;;;1.40;99.90;;;;;;5059798;28;20671;-77
2021/01/09 01:27:42;;;;;;;23.67;14.10;;;1.40;99.90;;;;;;5063235;28;20257;-77
2021/01/09 01:30:08;;;;;;;17.50;10.90;;;1.40;99.90;;;;;;5060819;28;20176;-77
2021/01/09 01:32:34;;;;;;;21.97;13.17;;;1.50;99.90;;;;;;5061893;28;20181;-77
2021/01/09 01:35:00;;;;;;;16.50;11.37;;;1.50;99.90;;;;;;5043803;28;20682;-77
2021/01/09 01:37:25;;;;;;;20.20;13.27;;;1.50;99.90;;;;;;5042482;28;20184;-77
2021/01/09 01:39:51;;;;;;;18.57;12.00;;;1.50;99.90;;;;;;5062829;28;20259;-77
2021/01/09 01:42:16;;;;;;;21.70;13.30;;;1.50;99.90;;;;;;5059889;28;20211;-77
2021/01/09 01:44:41;;;;;;;21.17;13.00;;;1.50;99.90;;;;;;5062662;28;20216;-77
2021/01/09 01:47:14;;;;;;;19.30;13.57;;;1.50;99.90;;;;;;5060454;28;20189;-77
2021/01/09 01:49:40;;;;;;;22.43;13.17;;;1.50;99.90;;;;;;5063001;28;20188;-77
2021/01/09 01:52:06;;;;;;;22.67;12.87;;;1.50;99.90;;;;;;5061058;28;20409;-77
2021/01/09 01:54:32;;;;;;;22.30;13.03;;;1.50;99.90;;;;;;5043522;28;20235;-77
2021/01/09 01:57:01;;;;;;;20.33;13.17;;;1.50;99.90;;;;;;5061805;28;20517;-76
2021/01/09 01:59:27;;;;;;;20.30;13.13;;;1.60;99.90;;;;;;5060362;28;20192;-77
2021/01/09 02:01:52;;;;;;;19.87;13.20;;;1.60;99.90;;;;;;5062924;28;20757;-77
2021/01/09 02:04:18;;;;;;;21.30;13.60;;;1.60;99.90;;;;;;5059313;28;20211;-77
2021/01/09 02:06:43;;;;;;;20.20;13.73;;;1.60;99.90;;;;;;5045581;28;20200;-77
2021/01/09 02:09:20;;;;;;;19.77;13.07;;;1.60;99.90;;;;;;5060391;28;20215;-77
2021/01/09 02:12:07;;;;;;;20.77;14.23;;;1.60;99.90;;;;;;5056481;28;20644;-77
2021/01/09 02:14:38;;;;;;;23.17;13.53;;;1.50;99.90;;;;;;5042748;28;20479;-78
2021/01/09 02:17:06;;;;;;;24.00;12.83;;;1.50;99.90;;;;;;5063501;28;20419;-76
2021/01/09 02:19:36;;;;;;;22.70;13.53;;;1.50;99.90;;;;;;5063824;28;20424;-77
2021/01/09 02:22:05;;;;;;;20.13;12.50;;;1.50;99.90;;;;;;5063992;28;20763;-77
2021/01/09 02:24:30;;;;;;;22.87;12.33;;;1.50;99.90;;;;;;5061983;28;20475;-77
2021/01/09 02:26:56;;;;;;;21.00;13.37;;;1.50;99.90;;;;;;5061665;28;20502;-77
2021/01/09 02:29:28;;;;;;;20.17;12.07;;;1.50;99.90;;;;;;5059147;28;20176;-77
2021/01/09 02:31:56;;;;;;;17.77;12.43;;;1.50;99.90;;;;;;5061718;28;20424;-77
2021/01/09 02:34:23;;;;;;;20.03;12.60;;;1.50;99.90;;;;;;5058813;28;20539;-77
2021/01/09 02:36:50;;;;;;;26.87;15.57;;;1.60;99.90;;;;;;5062760;28;20487;-77
2021/01/09 02:39:16;;;;;;;28.60;14.93;;;1.60;99.90;;;;;;5054854;28;20519;-77
2021/01/09 02:41:45;;;;;;;25.57;14.23;;;1.50;99.90;;;;;;5062145;28;20532;-77
2021/01/09 02:44:11;;;;;;;23.83;15.30;;;1.50;99.90;;;;;;5041207;28;20221;-77
2021/01/09 02:46:37;;;;;;;23.77;13.53;;;1.60;99.90;;;;;;5061740;28;20423;-77
2021/01/09 02:49:04;;;;;;;21.90;13.80;;;1.60;99.90;;;;;;5060543;28;20412;-77
2021/01/09 02:51:29;;;;;;;28.53;15.27;;;1.50;99.90;;;;;;5060656;28;20428;-77
2021/01/09 02:53:55;;;;;;;28.20;14.30;;;1.60;99.90;;;;;;5065187;28;20633;-77
2021/01/09 02:56:20;;;;;;;24.03;14.97;;;1.60;99.90;;;;;;5063324;28;20224;-77
2021/01/09 02:58:46;;;;;;;20.40;13.93;;;1.70;99.90;;;;;;5066107;28;20683;-77
2021/01/09 03:01:11;;;;;;;26.67;14.33;;;1.70;99.90;;;;;;5063190;28;20516;-77
2021/01/09 03:03:37;;;;;;;25.47;14.23;;;1.60;99.90;;;;;;5065252;28;20206;-77
2021/01/09 03:06:02;;;;;;;24.73;15.90;;;1.60;99.90;;;;;;5046647;28;20261;-78
2021/01/09 03:08:28;;;;;;;26.50;15.83;;;1.60;99.90;;;;;;5063630;28;20207;-77
2021/01/09 03:10:53;;;;;;;27.40;15.27;;;1.50;99.90;;;;;;5065710;28;20262;-77
2021/01/09 03:13:19;;;;;;;24.10;15.47;;;1.50;99.90;;;;;;5062332;28;20198;-77
2021/01/09 03:15:44;;;;;;;25.90;15.50;;;1.50;99.90;;;;;;5065903;28;20179;-77
2021/01/09 03:18:10;;;;;;;24.77;15.30;;;1.50;99.90;;;;;;5062843;28;20189;-78
2021/01/09 03:20:36;;;;;;;24.07;14.97;;;1.50;99.90;;;;;;5046487;28;20266;-78
2021/01/09 03:23:01;;;;;;;23.53;14.50;;;1.50;99.90;;;;;;5064134;28;20188;-77
2021/01/09 03:25:27;;;;;;;23.80;15.10;;;1.50;99.90;;;;;;5063477;28;20237;-77
2021/01/09 03:27:52;;;;;;;27.23;16.53;;;1.40;99.90;;;;;;5047734;28;20170;-77
2021/01/09 03:30:18;;;;;;;26.30;16.87;;;1.50;99.90;;;;;;5062522;28;20169;-77
2021/01/09 03:32:43;;;;;;;25.13;15.57;;;1.60;99.90;;;;;;5065710;28;20596;-77
2021/01/09 03:35:09;;;;;;;27.40;17.30;;;1.50;99.90;;;;;;5062934;28;20751;-77
2021/01/09 03:37:35;;;;;;;27.77;16.13;;;1.50;99.90;;;;;;5064420;28;20182;-77
2021/01/09 03:40:00;;;;;;;24.57;16.20;;;1.50;99.90;;;;;;5064268;28;20675;-77
2021/01/09 03:42:26;;;;;;;26.77;15.70;;;1.60;99.90;;;;;;5063127;28;20277;-77
2021/01/09 03:44:51;;;;;;;28.40;16.10;;;1.50;99.90;;;;;;5047212;28;20201;-77
2021/01/09 03:47:17;;;;;;;28.30;16.70;;;1.50;99.90;;;;;;5061790;28;20188;-77
2021/01/09 03:49:42;;;;;;;29.47;15.47;;;1.50;99.90;;;;;;5065309;28;20226;-77
2021/01/09 03:52:08;;;;;;;26.83;16.53;;;1.60;99.90;;;;;;5062953;28;20184;-77
2021/01/09 03:54:33;;;;;;;29.10;16.40;;;1.50;99.90;;;;;;5063477;28;20945;-77
2021/01/09 03:56:59;;;;;;;26.10;16.27;;;1.50;99.90;;;;;;5046316;28;20178;-77
2021/01/09 03:59:24;;;;;;;25.13;15.20;;;1.40;99.90;;;;;;5044178;28;20199;-78
2021/01/09 04:01:50;;;;;;;29.57;17.30;;;1.40;99.90;;;;;;5047454;28;20223;-77
2021/01/09 04:04:15;;;;;;;25.30;16.23;;;1.40;99.90;;;;;;5057380;28;20205;-77
2021/01/09 04:06:40;;;;;;;32.67;17.67;;;1.40;99.90;;;;;;5064643;28;20207;-77
2021/01/09 04:09:06;;;;;;;25.60;16.17;;;1.40;99.90;;;;;;5064814;28;20181;-78
2021/01/09 04:11:31;;;;;;;25.27;16.37;;;1.40;99.90;;;;;;5065956;28;20189;-78
2021/01/09 04:13:57;;;;;;;28.90;16.90;;;1.40;99.90;;;;;;5067317;28;20597;-78
2021/01/09 04:16:23;;;;;;;31.60;16.60;;;1.40;99.90;;;;;;5064548;28;20661;-78
2021/01/09 04:18:48;;;;;;;29.20;17.40;;;1.40;99.90;;;;;;5067545;28;20263;-78
2021/01/09 04:21:14;;;;;;;34.33;18.63;;;1.40;99.90;;;;;;5064444;28;20183;-78
2021/01/09 04:23:39;;;;;;;26.00;16.17;;;1.50;99.90;;;;;;5066967;28;20218;-78
2021/01/09 04:26:04;;;;;;;31.30;17.50;;;1.40;99.90;;;;;;5066487;28;20186;-78
2021/01/09 04:28:30;;;;;;;27.80;16.77;;;1.40;99.90;;;;;;5065641;28;20277;-79
2021/01/09 04:30:55;;;;;;;30.43;16.30;;;1.40;99.90;;;;;;5066626;28;20185;-78
2021/01/09 04:33:21;;;;;;;28.70;17.23;;;1.40;99.90;;;;;;5063185;28;20197;-78
2021/01/09 04:35:47;;;;;;;29.97;18.07;;;1.40;99.90;;;;;;5067066;28;20202;-78
2021/01/09 04:38:12;;;;;;;26.90;16.27;;;1.40;99.90;;;;;;5045353;28;20182;-78
2021/01/09 04:40:38;;;;;;;29.63;17.03;;;1.40;99.90;;;;;;5065868;28;20208;-78
2021/01/09 04:43:03;;;;;;;31.77;18.63;;;1.40;99.90;;;;;;5064798;28;20188;-78
2021/01/09 04:45:29;;;;;;;28.53;15.90;;;1.50;99.90;;;;;;5065104;28;20253;-78
2021/01/09 04:47:56;;;;;;;29.67;18.23;;;1.50;99.90;;;;;;5065871;28;20598;-78
2021/01/09 04:50:22;;;;;;;32.87;18.53;;;1.50;99.90;;;;;;5045747;28;20184;-78
2021/01/09 04:52:49;;;;;;;33.93;18.60;;;1.40;99.90;;;;;;5067319;28;20415;-78
2021/01/09 04:55:15;;;;;;;36.10;19.73;;;1.40;99.90;;;;;;5062999;28;20438;-78
2021/01/09 04:57:40;;;;;;;29.90;18.27;;;1.40;99.90;;;;;;5066764;28;20394;-79
2021/01/09 05:00:07;;;;;;;32.30;19.03;;;1.40;99.90;;;;;;5065160;28;20397;-78
2021/01/09 05:02:36;;;;;;;30.40;18.30;;;1.40;99.90;;;;;;5047784;28;20694;-78
2021/01/09 05:05:03;;;;;;;25.40;17.13;;;1.40;99.90;;;;;;5065596;28;20479;-78
2021/01/09 05:07:29;;;;;;;34.43;19.27;;;1.40;99.90;;;;;;5047233;28;20485;-78
2021/01/09 05:10:05;;;;;;;28.80;18.60;;;1.40;99.90;;;;;;5066543;28;20949;-78
2021/01/09 05:12:35;;;;;;;31.90;18.00;;;1.40;99.90;;;;;;5065212;28;20174;-78
2021/01/09 05:15:01;;;;;;;40.43;19.57;;;1.40;99.90;;;;;;5064796;28;20528;-78
2021/01/09 05:17:27;;;;;;;37.97;20.07;;;1.50;99.90;;;;;;5063959;28;20461;-78
2021/01/09 05:19:53;;;;;;;34.60;18.10;;;1.40;99.90;;;;;;5066392;28;20396;-78
2021/01/09 05:22:19;;;;;;;32.23;17.80;;;1.40;99.90;;;;;;5064268;28;20654;-78
2021/01/09 05:24:47;;;;;;;28.97;18.33;;;1.50;99.90;;;;;;5067024;28;20214;-78
2021/01/09 05:27:16;;;;;;;35.63;17.90;;;1.40;99.90;;;;;;5064440;28;20393;-78
2021/01/09 05:29:42;;;;;;;27.10;17.23;;;1.40;99.90;;;;;;5049092;28;20409;-78
2021/01/09 05:32:10;;;;;;;32.13;18.80;;;1.40;99.90;;;;;;5046959;28;20401;-78
2021/01/09 05:34:49;;;;;;;29.10;18.33;;;1.40;99.90;;;;;;5063114;28;20558;-76
2021/01/09 05:37:16;;;;;;;30.03;18.70;;;1.40;99.90;;;;;;5059481;28;20430;-75
2021/01/09 05:39:58;;;;;;;34.50;19.13;;;1.50;99.90;;;;;;5062487;28;20386;-77
2021/01/09 05:42:28;;;;;;;34.93;18.03;;;1.40;99.90;;;;;;5056703;28;20453;-77
2021/01/09 05:44:58;;;;;;;32.90;19.00;;;1.40;99.90;;;;;;5061476;28;20553;-77
2021/01/09 05:47:26;;;;;;;35.83;19.17;;;1.40;99.90;;;;;;5059436;28;20410;-76
2021/01/09 05:49:53;;;;;;;30.33;18.13;;;1.50;99.90;;;;;;5062534;28;20948;-77
2021/01/09 05:52:24;;;;;;;30.63;19.10;;;1.40;99.90;;;;;;5059338;28;20444;-76
2021/01/09 05:54:58;;;;;;;33.20;19.30;;;1.40;99.90;;;;;;5055812;28;20451;-77
2021/01/09 05:57:33;;;;;;;32.40;19.43;;;1.40;99.90;;;;;;5056788;28;20412;-76
2021/01/09 06:00:07;;;;;;;36.27;19.30;;;1.40;99.90;;;;;;5061623;28;20503;-77
2021/01/09 06:03:20;;;;;;;31.50;18.37;;;1.40;99.90;;;;;;5060654;28;20423;-77
2021/01/09 06:05:49;;;;;;;31.33;18.87;;;1.40;99.90;;;;;;4973934;28;20435;-77
2021/01/09 06:08:20;;;;;;;33.27;19.00;;;1.50;99.90;;;;;;5046719;28;20520;-77
2021/01/09 06:10:47;;;;;;;30.90;17.77;;;1.50;99.90;;;;;;5055026;28;20448;-77
2021/01/09 06:13:13;;;;;;;31.27;18.80;;;1.40;99.90;;;;;;5061875;28;20395;-77
2021/01/09 06:15:41;;;;;;;36.90;20.80;;;1.40;99.90;;;;;;5059893;28;20483;-77
2021/01/09 06:18:08;;;;;;;33.30;19.00;;;1.40;99.90;;;;;;5042942;28;20425;-77
2021/01/09 06:20:35;;;;;;;35.77;20.47;;;1.40;99.90;;;;;;5060319;28;20443;-77
2021/01/09 06:23:01;;;;;;;34.77;19.47;;;1.30;99.90;;;;;;5060144;28;20479;-76
2021/01/09 06:25:28;;;;;;;41.40;19.80;;;1.40;99.90;;;;;;5061335;28;20829;-77
2021/01/09 06:27:58;;;;;;;31.40;19.47;;;1.40;99.90;;;;;;5062812;28;20408;-77
2021/01/09 06:30:25;;;;;;;33.10;19.80;;;1.40;99.90;;;;;;5065514;28;20417;-77
2021/01/09 06:33:02;;;;;;;30.20;18.20;;;1.40;99.90;;;;;;5062967;28;20481;-77
2021/01/09 06:35:31;;;;;;;32.40;18.47;;;1.40;99.90;;;;;;5043340;28;20433;-77
2021/01/09 06:37:56;;;;;;;30.00;18.13;;;1.40;99.90;;;;;;5065207;28;20453;-77
2021/01/09 06:40:22;;;;;;;27.70;17.90;;;1.40;99.90;;;;;;5044589;28;20863;-77
2021/01/09 06:42:50;;;;;;;36.30;18.33;;;1.40;99.90;;;;;;5066509;28;20266;-77
2021/01/09 06:45:16;;;;;;;34.67;19.53;;;1.40;99.90;;;;;;5058655;28;20214;-77
2021/01/09 06:47:55;;;;;;;35.50;17.97;;;1.40;99.90;;;;;;5065137;28;20393;-76
2021/01/09 06:50:26;;;;;;;35.07;18.27;;;1.40;99.90;;;;;;5058858;28;20440;-77
2021/01/09 06:52:58;;;;;;;31.20;18.97;;;1.40;99.90;;;;;;5065582;28;20444;-77
2021/01/09 06:55:36;;;;;;;28.97;17.67;;;1.40;99.90;;;;;;5062583;28;20431;-77
2021/01/09 06:58:06;;;;;;;36.73;19.23;;;1.40;99.90;;;;;;5063917;28;20411;-77
2021/01/09 07:00:32;;;;;;;39.33;20.53;;;1.40;99.90;;;;;;5063736;28;20399;-77
2021/01/09 07:03:15;;;;;;;30.03;18.80;;;1.40;99.90;;;;;;5064635;28;20417;-77
2021/01/09 07:05:51;;;;;;;32.53;17.70;;;1.40;99.90;;;;;;5064988;28;20486;-77
2021/01/09 07:08:28;;;;;;;32.67;18.70;;;1.40;99.90;;;;;;5057754;28;20413;-77
2021/01/09 07:10:57;;;;;;;31.97;19.10;;;1.40;99.90;;;;;;5059698;28;20447;-77
2021/01/09 07:13:23;;;;;;;34.80;18.43;;;1.40;99.90;;;;;;5065268;28;20967;-74
2021/01/09 07:16:09;;;;;;;31.80;18.37;;;1.40;99.90;;;;;;5062156;28;20521;-74
2021/01/09 07:18:47;;;;;;;38.13;20.60;;;1.40;99.90;;;;;;5062135;28;20393;-74
2021/01/09 07:21:18;;;;;;;36.70;20.20;;;1.40;99.90;;;;;;5062115;28;20425;-74
2021/01/09 07:23:50;;;;;;;36.13;20.57;;;1.40;99.90;;;;;;5064888;28;20454;-74
2021/01/09 07:26:17;;;;;;;34.03;18.90;;;1.50;99.90;;;;;;5057558;28;20881;-74
2021/01/09 07:28:46;;;;;;;34.77;17.37;;;1.50;99.90;;;;;;5064603;28;20473;-74
2021/01/09 07:31:12;;;;;;;32.63;19.00;;;1.50;99.90;;;;;;5061861;28;20951;-73
2021/01/09 07:33:38;;;;;;;35.33;21.00;;;1.50;99.90;;;;;;5063968;28;20429;-74
2021/01/09 07:36:04;;;;;;;35.23;19.93;;;1.50;99.90;;;;;;5063171;28;20211;-74
2021/01/09 07:38:30;;;;;;;32.70;19.43;;;1.50;99.90;;;;;;5061801;28;20922;-74
2021/01/09 07:41:05;;;;;;;36.73;20.40;;;1.50;99.90;;;;;;5064059;28;20430;-74
2021/01/09 07:43:42;;;;;;;38.70;20.73;;;1.50;99.90;;;;;;5062638;28;20477;-73
2021/01/09 07:46:28;;;;;;;42.03;20.73;;;1.50;99.90;;;;;;5062374;28;20397;-73
2021/01/09 07:48:55;;;;;;;41.00;21.03;;;1.60;99.90;;;;;;5058524;28;20434;-73
2021/01/09 07:51:47;;;;;;;35.50;18.93;;;1.60;99.90;;;;;;5064563;28;20518;-74
2021/01/09 07:54:44;;;;;;;41.43;21.77;;;1.50;99.90;;;;;;5063995;28;20451;-73
2021/01/09 07:57:19;;;;;;;42.13;21.00;;;1.60;99.90;;;;;;5062628;28;20420;-73
2021/01/09 07:59:54;;;;;;;34.53;21.80;;;1.60;99.90;;;;;;5061357;28;20420;-73
2021/01/09 08:02:28;;;;;;;40.33;21.43;;;1.60;99.90;;;;;;5057521;28;20483;-73
2021/01/09 08:05:06;;;;;;;42.60;23.43;;;1.60;99.90;;;;;;5058247;28;20461;-73
2021/01/09 08:07:37;;;;;;;42.50;22.73;;;1.60;99.90;;;;;;5062520;28;20479;-73
2021/01/09 08:10:16;;;;;;;36.43;20.77;;;1.60;99.90;;;;;;5062783;28;20929;-73
2021/01/09 08:12:41;;;;;;;37.17;22.17;;;1.60;99.90;;;;;;5061746;28;20497;-73
2021/01/09 08:15:07;;;;;;;35.10;20.03;;;1.70;99.90;;;;;;5062917;28;20453;-73
2021/01/09 08:17:33;;;;;;;37.07;21.30;;;1.70;99.90;;;;;;5062354;28;20173;-72
2021/01/09 08:20:09;;;;;;;32.67;19.33;;;1.70;99.90;;;;;;5061761;28;20404;-72
2021/01/09 08:22:35;;;;;;;40.40;19.87;;;1.80;99.90;;;;;;5062480;28;20174;-73
2021/01/09 08:25:09;;;;;;;34.63;20.77;;;1.70;99.90;;;;;;5061812;28;20522;-73
2021/01/09 08:27:43;;;;;;;37.50;20.93;;;1.80;99.90;;;;;;5044088;28;20424;-73
2021/01/09 08:30:11;;;;;;;39.20;21.37;;;1.80;99.90;;;;;;5062926;28;20422;-73
2021/01/09 08:32:37;;;;;;;31.67;18.97;;;1.90;99.90;;;;;;5061755;28;20398;-73
2021/01/09 08:35:03;;;;;;;38.93;19.33;;;1.80;99.90;;;;;;5061866;28;20418;-73
2021/01/09 08:37:29;;;;;;;34.63;19.50;;;1.80;99.90;;;;;;5062738;28;20174;-73
2021/01/09 08:39:56;;;;;;;31.57;18.70;;;1.80;99.90;;;;;;5042798;28;20189;-73
2021/01/09 08:42:22;;;;;;;33.83;19.47;;;1.90;99.90;;;;;;5063602;28;20507;-73
2021/01/09 08:44:48;;;;;;;30.67;19.10;;;1.80;99.90;;;;;;5060159;28;20556;-74
2021/01/09 08:47:18;;;;;;;37.47;20.27;;;1.80;99.90;;;;;;5063077;28;20207;-73
2021/01/09 08:49:46;;;;;;;30.33;18.63;;;1.80;99.90;;;;;;5059324;28;20422;-73
2021/01/09 08:52:16;;;;;;;32.80;19.77;;;1.80;99.90;;;;;;5062740;28;20469;-74
2021/01/09 08:54:44;;;;;;;35.17;20.40;;;1.80;99.90;;;;;;5060497;28;20496;-74
2021/01/09 08:57:12;;;;;;;38.27;20.40;;;1.90;99.90;;;;;;5062414;28;20475;-73
2021/01/09 08:59:39;;;;;;;35.33;19.60;;;1.90;99.90;;;;;;5061143;28;20394;-73
2021/01/09 09:02:10;;;;;;;41.30;20.90;;;2.00;99.90;;;;;;5061634;28;20512;-74
2021/01/09 09:04:40;;;;;;;35.73;18.93;;;2.00;99.90;;;;;;5061370;28;20492;-73
2021/01/09 09:07:08;;;;;;;37.40;21.40;;;2.10;99.90;;;;;;5061905;28;20427;-74
2021/01/09 09:09:34;;;;;;;31.87;17.90;;;2.10;99.90;;;;;;5061229;28;20386;-74
2021/01/09 09:12:00;;;;;;;30.10;16.23;;;2.10;99.90;;;;;;5061042;28;20449;-74
2021/01/09 09:14:26;;;;;;;24.67;16.17;;;2.10;99.90;;;;;;5044427;28;20291;-74
2021/01/09 09:17:03;;;;;;;28.23;15.70;;;2.10;99.90;;;;;;5041791;28;20858;-74
2021/01/09 09:19:37;;;;;;;26.40;16.47;;;2.10;99.90;;;;;;5061713;28;20266;-74
2021/01/09 09:22:04;;;;;;;29.73;16.67;;;2.10;99.90;;;;;;5061281;28;20395;-74
2021/01/09 09:24:41;;;;;;;24.73;15.37;;;2.00;99.90;;;;;;5061814;28;20811;-73
2021/01/09 09:27:29;;;;;;;24.00;15.43;;;1.90;99.90;;;;;;5061538;28;20426;-73
2021/01/09 09:30:11;;;;;;;22.10;12.70;;;2.00;99.90;;;;;;5056439;28;20416;-74
2021/01/09 09:32:39;;;;;;;23.43;13.63;;;1.80;99.90;;;;;;5060775;28;20389;-73
2021/01/09 09:35:23;;;;;;;23.60;12.77;;;1.80;99.90;;;;;;5060901;28;20825;-73
2021/01/09 09:37:50;;;;;;;23.37;13.10;;;1.80;99.90;;;;;;5055556;28;20416;-74
2021/01/09 09:40:25;;;;;;;22.77;14.33;;;1.90;99.90;;;;;;5055528;28;20403;-74
2021/01/09 09:42:51;;;;;;;24.00;14.27;;;2.00;99.90;;;;;;5065936;28;20955;-74
2021/01/09 09:45:17;;;;;;;22.03;13.83;;;2.10;99.90;;;;;;5054624;28;20463;-73
2021/01/09 09:47:50;;;;;;;28.27;16.80;;;2.40;99.90;;;;;;5061827;28;20174;-74
2021/01/09 09:50:23;;;;;;;22.60;13.70;;;2.60;99.90;;;;;;5058947;28;20412;-74
2021/01/09 09:52:58;;;;;;;23.63;13.43;;;3.00;99.90;;;;;;5055193;28;20408;-74
2021/01/09 09:55:24;;;;;;;21.90;12.90;;;3.20;99.90;;;;;;5055622;28;20416;-74
2021/01/09 09:58:10;;;;;;;20.63;13.23;;;3.50;99.90;;;;;;5062166;28;20778;-74
2021/01/09 10:00:45;;;;;;;19.80;12.53;;;3.70;99.90;;;;;;5059256;28;20837;-75
2021/01/09 10:03:11;;;;;;;21.47;12.40;;;3.50;99.90;;;;;;5059320;28;20419;-74
2021/01/09 10:05:38;;;;;;;22.33;12.70;;;3.40;99.90;;;;;;5061241;28;20423;-74
2021/01/09 10:08:10;;;;;;;25.43;13.97;;;3.20;99.90;;;;;;5060321;28;20390;-74
2021/01/09 10:10:35;;;;;;;20.83;13.77;;;2.90;99.90;;;;;;5060479;28;20433;-74
2021/01/09 10:13:01;;;;;;;21.07;10.80;;;2.90;99.90;;;;;;5060856;28;20476;-74
2021/01/09 10:15:27;;;;;;;20.73;13.30;;;3.00;99.90;;;;;;5059389;28;20194;-73
2021/01/09 10:17:57;;;;;;;28.00;16.20;;;3.00;99.90;;;;;;5062039;28;20264;-74
2021/01/09 10:20:23;;;;;;;19.57;12.73;;;3.00;99.90;;;;;;5058424;28;20273;-74
2021/01/09 10:22:48;;;;;;;22.90;13.80;;;2.90;99.90;;;;;;5062208;28;20431;-74
2021/01/09 10:25:14;;;;;;;21.60;13.50;;;2.90;99.90;;;;;;5058313;28;20476;-74
2021/01/09 10:27:39;;;;;;;23.13;13.63;;;3.00;99.90;;;;;;5061190;28;20647;-74
2021/01/09 10:30:06;;;;;;;23.97;14.07;;;3.00;99.90;;;;;;5059897;28;20564;-74
2021/01/09 10:32:32;;;;;;;25.40;14.80;;;3.10;99.90;;;;;;5060082;28;20189;-74
2021/01/09 10:34:57;;;;;;;22.57;14.07;;;3.10;99.90;;;;;;5060977;28;20447;-74
2021/01/09 10:37:23;;;;;;;18.93;11.93;;;3.10;99.90;;;;;;5058677;28;20213;-73
2021/01/09 10:39:49;;;;;;;18.83;12.13;;;3.00;99.90;;;;;;5061525;28;20218;-73
2021/01/09 10:42:14;;;;;;;21.93;13.27;;;3.10;99.90;;;;;;5058775;28;20188;-74
2021/01/09 10:44:41;;;;;;;19.70;12.70;;;3.00;99.90;;;;;;5061042;28;20207;-75
2021/01/09 10:47:06;;;;;;;20.50;11.57;;;3.00;99.90;;;;;;5064912;28;20192;-75
2021/01/09 10:49:32;;;;;;;19.37;12.20;;;3.00;99.90;;;;;;5063564;28;20411;-74
2021/01/09 10:51:58;;;;;;;19.27;12.00;;;3.00;99.90;;;;;;5059419;28;20178;-74
2021/01/09 10:54:23;;;;;;;22.97;14.50;;;3.10;99.90;;;;;;5061066;28;20226;-74
2021/01/09 10:56:49;;;;;;;22.10;13.30;;;3.00;99.90;;;;;;5058234;28;20432;-74
2021/01/09 10:59:14;;;;;;;20.87;12.27;;;3.00;99.90;;;;;;5061138;28;20260;-74
2021/01/09 11:01:40;;;;;;;21.30;13.63;;;2.80;99.90;;;;;;5041283;28;20185;-74
2021/01/09 11:04:05;;;;;;;19.90;12.30;;;2.80;99.90;;;;;;5059907;28;20209;-74
2021/01/09 11:06:31;;;;;;;26.47;15.10;;;2.70;99.90;;;;;;5060452;28;20542;-74
2021/01/09 11:08:56;;;;;;;23.40;12.53;;;2.70;99.90;;;;;;5040612;28;20205;-74
2021/01/09 11:11:22;;;;;;;25.50;13.90;;;2.70;99.90;;;;;;5061607;28;20242;-74
2021/01/09 11:13:48;;;;;;;21.67;13.43;;;3.10;99.90;;;;;;5041823;28;20193;-75
2021/01/09 11:16:22;;;;;;;20.50;12.10;;;3.60;99.90;;;;;;5046859;28;20184;-74
2021/01/09 11:18:48;;;;;;;18.60;11.30;;;4.10;99.90;;;;;;5057549;28;20392;-74
2021/01/09 11:21:18;;;;;;;18.30;10.83;;;4.60;99.90;;;;;;5046868;28;20510;-75
2021/01/09 11:23:47;;;;;;;18.57;11.30;;;5.00;99.90;;;;;;5061754;28;20461;-75
2021/01/09 11:26:24;;;;;;;19.03;10.70;;;5.30;99.90;;;;;;5064560;28;20409;-75
2021/01/09 11:28:51;;;;;;;15.67;10.10;;;5.50;99.90;;;;;;5039929;28;20449;-74
2021/01/09 11:31:16;;;;;;;14.30;9.50;;;5.40;99.90;;;;;;5057397;28;20414;-75
2021/01/09 11:33:42;;;;;;;15.53;9.80;;;5.00;99.90;;;;;;5064284;28;20832;-75
2021/01/09 11:36:12;;;;;;;16.07;9.20;;;4.80;99.90;;;;;;5062712;28;20208;-73
2021/01/09 11:38:37;;;;;;;16.60;10.63;;;4.40;99.90;;;;;;5063210;28;20178;-74
2021/01/09 11:41:03;;;;;;;19.03;9.90;;;4.10;99.90;;;;;;5063109;28;20423;-75
2021/01/09 11:43:32;;;;;;;17.13;10.00;;;3.80;99.90;;;;;;5062082;28;20213;-75
2021/01/09 11:45:58;;;;;;;15.07;9.60;;;3.60;99.90;;;;;;5046689;28;20425;-73
2021/01/09 11:48:24;;;;;;;17.87;11.47;;;3.40;99.90;;;;;;5062317;28;20452;-76
2021/01/09 11:50:50;;;;;;;21.07;11.50;;;3.30;99.90;;;;;;5064691;28;20177;-76
2021/01/09 11:53:16;;;;;;;16.60;10.83;;;3.10;99.90;;;;;;5060943;28;20459;-76
2021/01/09 11:55:42;;;;;;;19.57;10.70;;;2.90;99.90;;;;;;5063980;28;20435;-76
2021/01/09 11:58:07;;;;;;;15.87;11.00;;;2.80;99.90;;;;;;5062162;28;20419;-76
2021/01/09 12:00:33;;;;;;;14.87;10.87;;;2.90;99.90;;;;;;5044572;28;20178;-76
2021/01/09 12:02:58;;;;;;;13.60;9.50;;;2.90;99.90;;;;;;5063600;28;20543;-76
2021/01/09 12:05:24;;;;;;;17.20;9.63;;;3.00;99.90;;;;;;5061007;28;20254;-75
2021/01/09 12:07:50;;;;;;;13.73;7.57;;;3.00;99.90;;;;;;5064396;28;20169;-75
2021/01/09 12:10:15;;;;;;;12.63;7.50;;;3.10;99.90;;;;;;5042601;28;20642;-76
2021/01/09 12:12:41;;;;;;;10.50;7.83;;;3.30;99.90;;;;;;5045744;28;20639;-74
2021/01/09 12:15:07;;;;;;;12.53;7.60;;;3.40;99.90;;;;;;5062100;28;20217;-75
2021/01/09 12:17:36;;;;;;;10.73;7.40;;;3.50;99.90;;;;;;5062184;28;20231;-74
2021/01/09 12:20:03;;;;;;;12.10;8.10;;;3.40;99.90;;;;;;5062441;28;20427;-75
2021/01/09 12:22:31;;;;;;;13.83;7.93;;;3.40;99.90;;;;;;5061563;28;20516;-75
2021/01/09 12:24:56;;;;;;;13.57;8.10;;;3.60;99.90;;;;;;5045386;28;20835;-76
2021/01/09 12:27:24;;;;;;;16.10;8.83;;;3.70;99.90;;;;;;5060516;28;20420;-76
2021/01/09 12:29:49;;;;;;;11.83;7.43;;;3.70;99.90;;;;;;5063874;28;20238;-76
2021/01/09 12:32:15;;;;;;;12.73;8.03;;;3.90;99.90;;;;;;5042610;28;20424;-76
2021/01/09 12:34:40;;;;;;;13.37;8.90;;;3.70;99.90;;;;;;5045038;28;20576;-76
2021/01/09 12:37:06;;;;;;;13.30;8.90;;;3.50;99.90;;;;;;5061829;28;20188;-76
2021/01/09 12:39:32;;;;;;;13.53;7.97;;;3.30;99.90;;;;;;5061011;28;20189;-75
2021/01/09 12:41:57;;;;;;;14.50;8.00;;;3.20;99.90;;;;;;5062874;28;20263;-76